sensor_id;sensor_type;location;lat;lon;timestamp;temperature;humidity
21473;DHT22;10898;48.072;11.682;2023-12-04T00:00:54;-7.70;95.50
21473;DHT22;10898;48.072;11.682;2023-12-04T00:02:56;-7.70;95.10
21473;DHT22;10898;48.072;11.682;2023-12-04T00:04:58;-7.70;95.10
21473;DHT22;10898;48.072;11.682;2023-12-04T00:07:00;-7.70;95.00
21473;DHT22;10898;48.072;11.682;2023-12-04T00:09:01;-7.80;95.00
21473;DHT22;10898;48.072;11.682;2023-12-04T00:11:05;-7.80;94.60
21473;DHT22;10898;48.072;11.682;2023-12-04T00:13:06;-7.90;94.20
21473;DHT22;10898;48.072;11.682;2023-12-04T00:15:09;-7.90;94.00
21473;DHT22;10898;48.072;11.682;2023-12-04T00:17:11;-7.90;94.30
21473;DHT22;10898;48.072;11.682;2023-12-04T00:19:12;-7.90;94.20
21473;DHT22;10898;48.072;11.682;2023-12-04T00:21:15;-7.90;93.90
21473;DHT22;10898;48.072;11.682;2023-12-04T00:23:16;-8.00;93.80
21473;DHT22;10898;48.072;11.682;2023-12-04T00:25:18;-8.10;93.90
21473;DHT22;10898;48.072;11.682;2023-12-04T00:27:20;-8.10;94.00
21473;DHT22;10898;48.072;11.682;2023-12-04T00:29:22;-8.10;93.90
21473;DHT22;10898;48.072;11.682;2023-12-04T00:31:24;-8.10;93.60
21473;DHT22;10898;48.072;11.682;2023-12-04T00:33:26;-8.10;93.70
21473;DHT22;10898;48.072;11.682;2023-12-04T00:35:28;-8.10;93.40
21473;DHT22;10898;48.072;11.682;2023-12-04T00:37:30;-8.10;92.80
21473;DHT22;10898;48.072;11.682;2023-12-04T00:39:32;-8.20;93.10
21473;DHT22;10898;48.072;11.682;2023-12-04T00:41:34;-8.20;93.30
21473;DHT22;10898;48.072;11.682;2023-12-04T00:43:38;-8.20;93.90
21473;DHT22;10898;48.072;11.682;2023-12-04T00:45:40;-8.20;94.00
21473;DHT22;10898;48.072;11.682;2023-12-04T00:47:42;-8.20;94.30
21473;DHT22;10898;48.072;11.682;2023-12-04T00:49:44;-8.20;94.70
21473;DHT22;10898;48.072;11.682;2023-12-04T00:51:45;-8.10;95.00
21473;DHT22;10898;48.072;11.682;2023-12-04T00:53:47;-8.10;95.20
21473;DHT22;10898;48.072;11.682;2023-12-04T00:55:49;-8.10;95.20
21473;DHT22;10898;48.072;11.682;2023-12-04T00:57:51;-8.10;94.70
21473;DHT22;10898;48.072;11.682;2023-12-04T00:59:53;-8.10;94.70
21473;DHT22;10898;48.072;11.682;2023-12-04T01:01:54;-8.10;95.00
21473;DHT22;10898;48.072;11.682;2023-12-04T01:03:56;-8.10;95.00
21473;DHT22;10898;48.072;11.682;2023-12-04T01:05:59;-8.10;95.10
21473;DHT22;10898;48.072;11.682;2023-12-04T01:08:01;-8.10;95.80
21473;DHT22;10898;48.072;11.682;2023-12-04T01:10:03;-8.10;96.00
21473;DHT22;10898;48.072;11.682;2023-12-04T01:12:06;-8.10;96.00
21473;DHT22;10898;48.072;11.682;2023-12-04T01:14:07;-8.10;96.20
21473;DHT22;10898;48.072;11.682;2023-12-04T01:16:09;-8.10;96.30
21473;DHT22;10898;48.072;11.682;2023-12-04T01:18:11;-8.00;96.20
21473;DHT22;10898;48.072;11.682;2023-12-04T01:20:13;-8.00;96.40
21473;DHT22;10898;48.072;11.682;2023-12-04T01:22:15;-7.90;96.80
21473;DHT22;10898;48.072;11.682;2023-12-04T01:24:17;-7.90;97.10
21473;DHT22;10898;48.072;11.682;2023-12-04T01:26:19;-7.90;97.50
21473;DHT22;10898;48.072;11.682;2023-12-04T01:28:20;-7.90;97.10
21473;DHT22;10898;48.072;11.682;2023-12-04T01:30:22;-7.90;96.80
21473;DHT22;10898;48.072;11.682;2023-12-04T01:32:24;-7.90;96.60
21473;DHT22;10898;48.072;11.682;2023-12-04T01:34:26;-7.90;96.20
21473;DHT22;10898;48.072;11.682;2023-12-04T01:36:27;-7.90;96.10
21473;DHT22;10898;48.072;11.682;2023-12-04T01:38:30;-7.90;96.20
21473;DHT22;10898;48.072;11.682;2023-12-04T01:40:32;-7.90;95.90
21473;DHT22;10898;48.072;11.682;2023-12-04T01:42:36;-7.90;95.40
21473;DHT22;10898;48.072;11.682;2023-12-04T01:44:38;-7.90;95.20
21473;DHT22;10898;48.072;11.682;2023-12-04T01:46:41;-7.90;95.30
21473;DHT22;10898;48.072;11.682;2023-12-04T01:48:45;-7.90;95.20
21473;DHT22;10898;48.072;11.682;2023-12-04T01:50:48;-7.90;95.00
21473;DHT22;10898;48.072;11.682;2023-12-04T01:52:52;-7.90;95.50
21473;DHT22;10898;48.072;11.682;2023-12-04T01:54:54;-7.90;95.50
21473;DHT22;10898;48.072;11.682;2023-12-04T01:56:56;-7.90;95.30
21473;DHT22;10898;48.072;11.682;2023-12-04T01:58:58;-8.00;95.20
21473;DHT22;10898;48.072;11.682;2023-12-04T02:01:00;-7.90;95.20
21473;DHT22;10898;48.072;11.682;2023-12-04T02:03:03;-7.90;95.10
21473;DHT22;10898;48.072;11.682;2023-12-04T02:05:09;-8.00;95.00
21473;DHT22;10898;48.072;11.682;2023-12-04T02:07:12;-8.00;94.50
21473;DHT22;10898;48.072;11.682;2023-12-04T02:09:14;-8.10;94.10
21473;DHT22;10898;48.072;11.682;2023-12-04T02:11:17;-8.10;94.30
21473;DHT22;10898;48.072;11.682;2023-12-04T02:13:20;-8.10;94.60
21473;DHT22;10898;48.072;11.682;2023-12-04T02:15:22;-8.10;94.90
21473;DHT22;10898;48.072;11.682;2023-12-04T02:17:24;-8.10;95.10
21473;DHT22;10898;48.072;11.682;2023-12-04T02:19:26;-8.10;95.00
21473;DHT22;10898;48.072;11.682;2023-12-04T02:21:28;-8.10;94.80
21473;DHT22;10898;48.072;11.682;2023-12-04T02:23:30;-8.10;94.00
21473;DHT22;10898;48.072;11.682;2023-12-04T02:25:32;-8.10;93.50
21473;DHT22;10898;48.072;11.682;2023-12-04T02:27:42;-8.10;93.50
21473;DHT22;10898;48.072;11.682;2023-12-04T02:30:07;-8.20;94.00
21473;DHT22;10898;48.072;11.682;2023-12-04T02:32:14;-8.20;93.80
21473;DHT22;10898;48.072;11.682;2023-12-04T02:34:17;-8.20;93.30
21473;DHT22;10898;48.072;11.682;2023-12-04T02:36:21;-8.20;93.60
21473;DHT22;10898;48.072;11.682;2023-12-04T02:38:24;-8.20;93.30
21473;DHT22;10898;48.072;11.682;2023-12-04T02:40:27;-8.30;93.70
21473;DHT22;10898;48.072;11.682;2023-12-04T02:42:29;-8.30;93.50
21473;DHT22;10898;48.072;11.682;2023-12-04T02:44:30;-8.30;93.20
21473;DHT22;10898;48.072;11.682;2023-12-04T02:46:32;-8.40;93.00
21473;DHT22;10898;48.072;11.682;2023-12-04T02:48:34;-8.50;93.00
21473;DHT22;10898;48.072;11.682;2023-12-04T02:50:36;-8.50;93.20
21473;DHT22;10898;48.072;11.682;2023-12-04T02:52:41;-8.50;92.10
21473;DHT22;10898;48.072;11.682;2023-12-04T02:54:43;-8.50;91.80
21473;DHT22;10898;48.072;11.682;2023-12-04T02:56:45;-8.60;91.60
21473;DHT22;10898;48.072;11.682;2023-12-04T02:58:47;-8.60;92.00
21473;DHT22;10898;48.072;11.682;2023-12-04T03:00:48;-8.60;92.00
21473;DHT22;10898;48.072;11.682;2023-12-04T03:02:50;-8.70;92.50
21473;DHT22;10898;48.072;11.682;2023-12-04T03:04:52;-8.70;92.30
21473;DHT22;10898;48.072;11.682;2023-12-04T03:06:54;-8.70;93.00
21473;DHT22;10898;48.072;11.682;2023-12-04T03:08:55;-8.70;92.70
21473;DHT22;10898;48.072;11.682;2023-12-04T03:10:59;-8.70;92.00
21473;DHT22;10898;48.072;11.682;2023-12-04T03:13:02;-8.80;91.40
21473;DHT22;10898;48.072;11.682;2023-12-04T03:15:04;-8.80;91.80
21473;DHT22;10898;48.072;11.682;2023-12-04T03:17:06;-8.90;91.90
21473;DHT22;10898;48.072;11.682;2023-12-04T03:19:08;-8.90;92.80
21473;DHT22;10898;48.072;11.682;2023-12-04T03:21:11;-8.90;92.80
21473;DHT22;10898;48.072;11.682;2023-12-04T03:23:12;-8.90;92.60
21473;DHT22;10898;48.072;11.682;2023-12-04T03:25:14;-8.90;92.80
21473;DHT22;10898;48.072;11.682;2023-12-04T03:27:16;-8.90;92.80
21473;DHT22;10898;48.072;11.682;2023-12-04T03:29:18;-9.00;92.00
21473;DHT22;10898;48.072;11.682;2023-12-04T03:31:20;-9.00;91.80
21473;DHT22;10898;48.072;11.682;2023-12-04T03:33:22;-9.00;92.40
21473;DHT22;10898;48.072;11.682;2023-12-04T03:35:24;-9.00;92.40
21473;DHT22;10898;48.072;11.682;2023-12-04T03:37:26;-9.10;92.70
21473;DHT22;10898;48.072;11.682;2023-12-04T03:39:28;-9.10;93.10
21473;DHT22;10898;48.072;11.682;2023-12-04T03:41:29;-9.10;92.70
21473;DHT22;10898;48.072;11.682;2023-12-04T03:43:31;-9.10;92.50
21473;DHT22;10898;48.072;11.682;2023-12-04T03:45:33;-9.10;92.30
21473;DHT22;10898;48.072;11.682;2023-12-04T03:47:35;-9.10;92.50
21473;DHT22;10898;48.072;11.682;2023-12-04T03:49:36;-9.20;92.30
21473;DHT22;10898;48.072;11.682;2023-12-04T03:51:38;-9.30;93.00
21473;DHT22;10898;48.072;11.682;2023-12-04T03:53:40;-9.30;92.00
21473;DHT22;10898;48.072;11.682;2023-12-04T03:55:42;-9.30;91.90
21473;DHT22;10898;48.072;11.682;2023-12-04T03:57:44;-9.30;92.00
21473;DHT22;10898;48.072;11.682;2023-12-04T03:59:46;-9.30;92.20
21473;DHT22;10898;48.072;11.682;2023-12-04T04:01:48;-9.30;92.80
21473;DHT22;10898;48.072;11.682;2023-12-04T04:03:50;-9.40;92.60
21473;DHT22;10898;48.072;11.682;2023-12-04T04:05:52;-9.40;93.00
21473;DHT22;10898;48.072;11.682;2023-12-04T04:07:54;-9.30;93.00
21473;DHT22;10898;48.072;11.682;2023-12-04T04:09:55;-9.30;92.20
21473;DHT22;10898;48.072;11.682;2023-12-04T04:11:57;-9.40;91.80
21473;DHT22;10898;48.072;11.682;2023-12-04T04:13:59;-9.40;91.80
21473;DHT22;10898;48.072;11.682;2023-12-04T04:16:01;-9.50;92.00
21473;DHT22;10898;48.072;11.682;2023-12-04T04:18:03;-9.50;92.00
21473;DHT22;10898;48.072;11.682;2023-12-04T04:20:06;-9.50;92.10
21473;DHT22;10898;48.072;11.682;2023-12-04T04:22:08;-9.50;91.70
21473;DHT22;10898;48.072;11.682;2023-12-04T04:24:10;-9.50;92.20
21473;DHT22;10898;48.072;11.682;2023-12-04T04:26:12;-9.60;93.10
21473;DHT22;10898;48.072;11.682;2023-12-04T04:28:13;-9.50;92.30
21473;DHT22;10898;48.072;11.682;2023-12-04T04:30:15;-9.60;92.00
21473;DHT22;10898;48.072;11.682;2023-12-04T04:32:18;-9.60;92.10
21473;DHT22;10898;48.072;11.682;2023-12-04T04:34:21;-9.60;91.90
21473;DHT22;10898;48.072;11.682;2023-12-04T04:36:23;-9.60;92.00
21473;DHT22;10898;48.072;11.682;2023-12-04T04:38:26;-9.60;91.70
21473;DHT22;10898;48.072;11.682;2023-12-04T04:40:28;-9.60;91.60
21473;DHT22;10898;48.072;11.682;2023-12-04T04:42:30;-9.70;91.60
21473;DHT22;10898;48.072;11.682;2023-12-04T04:44:32;-9.60;91.80
21473;DHT22;10898;48.072;11.682;2023-12-04T04:46:34;-9.70;92.00
21473;DHT22;10898;48.072;11.682;2023-12-04T04:48:36;-9.70;92.40
21473;DHT22;10898;48.072;11.682;2023-12-04T04:50:38;-9.70;92.90
21473;DHT22;10898;48.072;11.682;2023-12-04T04:52:39;-9.70;92.80
21473;DHT22;10898;48.072;11.682;2023-12-04T04:54:41;-9.70;93.00
21473;DHT22;10898;48.072;11.682;2023-12-04T04:56:43;-9.70;92.90
21473;DHT22;10898;48.072;11.682;2023-12-04T04:58:45;-9.70;92.40
21473;DHT22;10898;48.072;11.682;2023-12-04T05:00:53;-9.70;92.30
21473;DHT22;10898;48.072;11.682;2023-12-04T05:02:55;-9.70;92.00
21473;DHT22;10898;48.072;11.682;2023-12-04T05:04:57;-9.70;91.50
21473;DHT22;10898;48.072;11.682;2023-12-04T05:06:59;-9.70;92.00
21473;DHT22;10898;48.072;11.682;2023-12-04T05:09:01;-9.70;92.80
21473;DHT22;10898;48.072;11.682;2023-12-04T05:11:02;-9.70;92.80
21473;DHT22;10898;48.072;11.682;2023-12-04T05:13:04;-9.70;92.70
21473;DHT22;10898;48.072;11.682;2023-12-04T05:15:07;-9.70;93.00
21473;DHT22;10898;48.072;11.682;2023-12-04T05:17:08;-9.70;93.30
21473;DHT22;10898;48.072;11.682;2023-12-04T05:19:10;-9.70;93.20
21473;DHT22;10898;48.072;11.682;2023-12-04T05:21:12;-9.70;93.20
21473;DHT22;10898;48.072;11.682;2023-12-04T05:23:14;-9.70;93.00
21473;DHT22;10898;48.072;11.682;2023-12-04T05:25:15;-9.70;93.00
21473;DHT22;10898;48.072;11.682;2023-12-04T05:27:17;-9.70;93.20
21473;DHT22;10898;48.072;11.682;2023-12-04T05:29:19;-9.70;93.80
21473;DHT22;10898;48.072;11.682;2023-12-04T05:31:22;-9.60;94.30
21473;DHT22;10898;48.072;11.682;2023-12-04T05:33:24;-9.60;94.00
21473;DHT22;10898;48.072;11.682;2023-12-04T05:35:25;-9.60;93.40
21473;DHT22;10898;48.072;11.682;2023-12-04T05:37:27;-9.60;93.50
21473;DHT22;10898;48.072;11.682;2023-12-04T05:39:29;-9.60;93.90
21473;DHT22;10898;48.072;11.682;2023-12-04T05:41:31;-9.60;93.20
21473;DHT22;10898;48.072;11.682;2023-12-04T05:43:32;-9.60;93.00
21473;DHT22;10898;48.072;11.682;2023-12-04T05:45:34;-9.60;92.70
21473;DHT22;10898;48.072;11.682;2023-12-04T05:47:36;-9.60;92.80
21473;DHT22;10898;48.072;11.682;2023-12-04T05:49:38;-9.60;93.40
21473;DHT22;10898;48.072;11.682;2023-12-04T05:51:40;-9.60;93.80
21473;DHT22;10898;48.072;11.682;2023-12-04T05:53:42;-9.60;94.30
21473;DHT22;10898;48.072;11.682;2023-12-04T05:55:43;-9.60;93.70
21473;DHT22;10898;48.072;11.682;2023-12-04T05:57:47;-9.60;93.70
21473;DHT22;10898;48.072;11.682;2023-12-04T05:59:49;-9.60;93.40
21473;DHT22;10898;48.072;11.682;2023-12-04T06:01:51;-9.60;93.10
21473;DHT22;10898;48.072;11.682;2023-12-04T06:03:53;-9.60;93.50
21473;DHT22;10898;48.072;11.682;2023-12-04T06:05:55;-9.50;94.50
21473;DHT22;10898;48.072;11.682;2023-12-04T06:07:59;-9.50;95.00
21473;DHT22;10898;48.072;11.682;2023-12-04T06:10:01;-9.50;94.40
21473;DHT22;10898;48.072;11.682;2023-12-04T06:12:05;-9.40;94.50
21473;DHT22;10898;48.072;11.682;2023-12-04T06:14:09;-9.30;94.60
21473;DHT22;10898;48.072;11.682;2023-12-04T06:16:12;-9.30;94.00
21473;DHT22;10898;48.072;11.682;2023-12-04T06:18:14;-9.30;94.10
21473;DHT22;10898;48.072;11.682;2023-12-04T06:20:16;-9.30;94.20
21473;DHT22;10898;48.072;11.682;2023-12-04T06:22:18;-9.30;94.30
21473;DHT22;10898;48.072;11.682;2023-12-04T06:24:21;-9.30;94.40
21473;DHT22;10898;48.072;11.682;2023-12-04T06:26:23;-9.30;94.40
21473;DHT22;10898;48.072;11.682;2023-12-04T06:28:25;-9.30;93.90
21473;DHT22;10898;48.072;11.682;2023-12-04T06:30:27;-9.30;93.40
21473;DHT22;10898;48.072;11.682;2023-12-04T06:32:29;-9.30;94.00
21473;DHT22;10898;48.072;11.682;2023-12-04T06:34:31;-9.30;94.30
21473;DHT22;10898;48.072;11.682;2023-12-04T06:36:35;-9.30;94.50
21473;DHT22;10898;48.072;11.682;2023-12-04T06:38:40;-9.30;94.20
21473;DHT22;10898;48.072;11.682;2023-12-04T06:40:42;-9.30;94.80
21473;DHT22;10898;48.072;11.682;2023-12-04T06:42:44;-9.30;94.90
21473;DHT22;10898;48.072;11.682;2023-12-04T06:44:46;-9.20;95.50
21473;DHT22;10898;48.072;11.682;2023-12-04T06:46:49;-9.10;95.60
21473;DHT22;10898;48.072;11.682;2023-12-04T06:48:57;-9.10;95.50
21473;DHT22;10898;48.072;11.682;2023-12-04T06:51:01;-9.10;94.90
21473;DHT22;10898;48.072;11.682;2023-12-04T06:53:02;-9.10;94.30
21473;DHT22;10898;48.072;11.682;2023-12-04T06:55:04;-9.10;93.70
21473;DHT22;10898;48.072;11.682;2023-12-04T06:57:06;-9.10;94.20
21473;DHT22;10898;48.072;11.682;2023-12-04T06:59:09;-9.10;95.30
21473;DHT22;10898;48.072;11.682;2023-12-04T07:01:11;-9.10;95.70
21473;DHT22;10898;48.072;11.682;2023-12-04T07:03:13;-9.00;95.70
21473;DHT22;10898;48.072;11.682;2023-12-04T07:05:15;-9.00;96.40
21473;DHT22;10898;48.072;11.682;2023-12-04T07:07:17;-9.00;96.10
21473;DHT22;10898;48.072;11.682;2023-12-04T07:09:18;-8.90;95.60
21473;DHT22;10898;48.072;11.682;2023-12-04T07:11:20;-8.90;95.20
21473;DHT22;10898;48.072;11.682;2023-12-04T07:13:22;-8.90;95.30
21473;DHT22;10898;48.072;11.682;2023-12-04T07:15:24;-8.90;95.20
21473;DHT22;10898;48.072;11.682;2023-12-04T07:17:25;-8.90;94.40
21473;DHT22;10898;48.072;11.682;2023-12-04T07:19:27;-8.90;94.80
21473;DHT22;10898;48.072;11.682;2023-12-04T07:21:30;-8.90;95.50
21473;DHT22;10898;48.072;11.682;2023-12-04T07:23:32;-8.80;95.50
21473;DHT22;10898;48.072;11.682;2023-12-04T07:25:34;-8.80;95.40
21473;DHT22;10898;48.072;11.682;2023-12-04T07:27:36;-8.80;95.50
21473;DHT22;10898;48.072;11.682;2023-12-04T07:29:38;-8.80;95.50
21473;DHT22;10898;48.072;11.682;2023-12-04T07:31:41;-8.80;95.50
21473;DHT22;10898;48.072;11.682;2023-12-04T07:33:43;-8.70;95.80
21473;DHT22;10898;48.072;11.682;2023-12-04T07:35:45;-8.70;96.00
21473;DHT22;10898;48.072;11.682;2023-12-04T07:37:46;-8.70;95.60
21473;DHT22;10898;48.072;11.682;2023-12-04T07:39:48;-8.60;95.30
21473;DHT22;10898;48.072;11.682;2023-12-04T07:41:50;-8.60;95.00
21473;DHT22;10898;48.072;11.682;2023-12-04T07:43:52;-8.60;95.30
21473;DHT22;10898;48.072;11.682;2023-12-04T07:45:55;-8.60;95.70
21473;DHT22;10898;48.072;11.682;2023-12-04T07:47:58;-8.50;96.20
21473;DHT22;10898;48.072;11.682;2023-12-04T07:50:00;-8.50;96.50
21473;DHT22;10898;48.072;11.682;2023-12-04T07:52:02;-8.50;96.70
21473;DHT22;10898;48.072;11.682;2023-12-04T07:54:04;-8.40;96.10
21473;DHT22;10898;48.072;11.682;2023-12-04T07:56:07;-8.30;95.80
21473;DHT22;10898;48.072;11.682;2023-12-04T07:58:09;-8.30;96.40
21473;DHT22;10898;48.072;11.682;2023-12-04T08:00:11;-8.20;96.70
21473;DHT22;10898;48.072;11.682;2023-12-04T08:02:13;-8.20;96.80
21473;DHT22;10898;48.072;11.682;2023-12-04T08:04:15;-8.10;96.90
21473;DHT22;10898;48.072;11.682;2023-12-04T08:06:17;-8.10;96.50
21473;DHT22;10898;48.072;11.682;2023-12-04T08:08:20;-8.00;96.50
21473;DHT22;10898;48.072;11.682;2023-12-04T08:10:23;-7.90;97.30
21473;DHT22;10898;48.072;11.682;2023-12-04T08:12:25;-7.90;97.60
21473;DHT22;10898;48.072;11.682;2023-12-04T08:14:27;-7.90;97.50
21473;DHT22;10898;48.072;11.682;2023-12-04T08:16:29;-7.80;97.60
21473;DHT22;10898;48.072;11.682;2023-12-04T08:18:31;-7.70;97.70
21473;DHT22;10898;48.072;11.682;2023-12-04T08:20:33;-7.70;98.20
21473;DHT22;10898;48.072;11.682;2023-12-04T08:22:42;-7.70;98.60
21473;DHT22;10898;48.072;11.682;2023-12-04T08:24:48;-7.60;98.50
21473;DHT22;10898;48.072;11.682;2023-12-04T08:26:50;-7.50;98.30
21473;DHT22;10898;48.072;11.682;2023-12-04T08:28:52;-7.40;98.20
21473;DHT22;10898;48.072;11.682;2023-12-04T08:30:54;-7.40;97.60
21473;DHT22;10898;48.072;11.682;2023-12-04T08:32:56;-7.30;97.20
21473;DHT22;10898;48.072;11.682;2023-12-04T08:34:58;-7.20;96.90
21473;DHT22;10898;48.072;11.682;2023-12-04T08:37:00;-7.10;97.00
21473;DHT22;10898;48.072;11.682;2023-12-04T08:39:01;-7.10;96.90
21473;DHT22;10898;48.072;11.682;2023-12-04T08:41:04;-7.00;96.80
21473;DHT22;10898;48.072;11.682;2023-12-04T08:43:06;-7.00;96.70
21473;DHT22;10898;48.072;11.682;2023-12-04T08:45:09;-6.90;96.70
21473;DHT22;10898;48.072;11.682;2023-12-04T08:47:11;-6.90;96.70
21473;DHT22;10898;48.072;11.682;2023-12-04T08:49:13;-6.80;96.80
21473;DHT22;10898;48.072;11.682;2023-12-04T08:51:17;-6.80;96.80
21473;DHT22;10898;48.072;11.682;2023-12-04T08:53:19;-6.70;97.00
21473;DHT22;10898;48.072;11.682;2023-12-04T08:55:21;-6.60;97.10
21473;DHT22;10898;48.072;11.682;2023-12-04T08:57:23;-6.60;97.20
21473;DHT22;10898;48.072;11.682;2023-12-04T08:59:25;-6.50;97.00
21473;DHT22;10898;48.072;11.682;2023-12-04T09:01:27;-6.40;96.90
21473;DHT22;10898;48.072;11.682;2023-12-04T09:03:29;-6.30;96.90
21473;DHT22;10898;48.072;11.682;2023-12-04T09:05:33;-6.30;96.80
21473;DHT22;10898;48.072;11.682;2023-12-04T09:07:36;-6.20;96.70
21473;DHT22;10898;48.072;11.682;2023-12-04T09:09:41;-6.10;96.40
21473;DHT22;10898;48.072;11.682;2023-12-04T09:11:43;-6.10;96.30
21473;DHT22;10898;48.072;11.682;2023-12-04T09:13:45;-6.00;95.80
21473;DHT22;10898;48.072;11.682;2023-12-04T09:15:47;-6.00;95.80
21473;DHT22;10898;48.072;11.682;2023-12-04T09:17:49;-6.00;95.70
21473;DHT22;10898;48.072;11.682;2023-12-04T09:19:51;-5.80;95.70
21473;DHT22;10898;48.072;11.682;2023-12-04T09:21:53;-5.80;95.40
21473;DHT22;10898;48.072;11.682;2023-12-04T09:24:09;-5.70;95.40
21473;DHT22;10898;48.072;11.682;2023-12-04T09:26:11;-5.60;94.70
21473;DHT22;10898;48.072;11.682;2023-12-04T09:28:13;-5.60;94.50
21473;DHT22;10898;48.072;11.682;2023-12-04T09:30:15;-5.40;94.70
21473;DHT22;10898;48.072;11.682;2023-12-04T09:32:17;-5.40;94.40
21473;DHT22;10898;48.072;11.682;2023-12-04T09:34:19;-5.40;94.00
21473;DHT22;10898;48.072;11.682;2023-12-04T09:36:21;-5.30;93.70
21473;DHT22;10898;48.072;11.682;2023-12-04T09:38:23;-5.20;93.80
21473;DHT22;10898;48.072;11.682;2023-12-04T09:40:25;-5.20;93.60
21473;DHT22;10898;48.072;11.682;2023-12-04T09:42:29;-5.20;93.60
21473;DHT22;10898;48.072;11.682;2023-12-04T09:44:32;-5.20;93.50
21473;DHT22;10898;48.072;11.682;2023-12-04T09:46:35;-5.10;93.20
21473;DHT22;10898;48.072;11.682;2023-12-04T09:48:38;-5.10;93.00
21473;DHT22;10898;48.072;11.682;2023-12-04T09:50:43;-5.10;93.00
21473;DHT22;10898;48.072;11.682;2023-12-04T09:52:45;-5.00;93.30
21473;DHT22;10898;48.072;11.682;2023-12-04T09:54:47;-5.00;93.40
21473;DHT22;10898;48.072;11.682;2023-12-04T09:56:50;-4.90;93.20
21473;DHT22;10898;48.072;11.682;2023-12-04T09:58:57;-4.90;92.70
21473;DHT22;10898;48.072;11.682;2023-12-04T10:01:01;-4.80;92.30
21473;DHT22;10898;48.072;11.682;2023-12-04T10:03:03;-4.80;92.80
21473;DHT22;10898;48.072;11.682;2023-12-04T10:05:07;-4.80;92.50
21473;DHT22;10898;48.072;11.682;2023-12-04T10:07:09;-4.70;92.50
21473;DHT22;10898;48.072;11.682;2023-12-04T10:09:11;-4.70;92.60
21473;DHT22;10898;48.072;11.682;2023-12-04T10:11:15;-4.60;91.80
21473;DHT22;10898;48.072;11.682;2023-12-04T10:13:17;-4.60;91.60
21473;DHT22;10898;48.072;11.682;2023-12-04T10:15:48;-4.60;92.10
21473;DHT22;10898;48.072;11.682;2023-12-04T10:17:50;-4.60;92.00
21473;DHT22;10898;48.072;11.682;2023-12-04T10:20:04;-4.60;92.10
21473;DHT22;10898;48.072;11.682;2023-12-04T10:22:12;-4.60;92.40
21473;DHT22;10898;48.072;11.682;2023-12-04T10:24:35;-4.60;92.90
21473;DHT22;10898;48.072;11.682;2023-12-04T10:26:49;-4.40;92.60
21473;DHT22;10898;48.072;11.682;2023-12-04T10:29:03;-4.40;92.60
21473;DHT22;10898;48.072;11.682;2023-12-04T10:31:06;-4.30;92.80
21473;DHT22;10898;48.072;11.682;2023-12-04T10:33:09;-4.20;92.30
21473;DHT22;10898;48.072;11.682;2023-12-04T10:35:12;-4.20;91.40
21473;DHT22;10898;48.072;11.682;2023-12-04T10:37:15;-4.20;91.50
21473;DHT22;10898;48.072;11.682;2023-12-04T10:39:18;-4.10;91.50
21473;DHT22;10898;48.072;11.682;2023-12-04T10:41:20;-4.00;91.10
21473;DHT22;10898;48.072;11.682;2023-12-04T10:43:22;-4.00;91.20
21473;DHT22;10898;48.072;11.682;2023-12-04T10:45:25;-4.00;91.30
21473;DHT22;10898;48.072;11.682;2023-12-04T10:47:28;-3.90;91.50
21473;DHT22;10898;48.072;11.682;2023-12-04T10:49:31;-3.90;91.70
21473;DHT22;10898;48.072;11.682;2023-12-04T10:51:34;-3.80;91.50
21473;DHT22;10898;48.072;11.682;2023-12-04T10:53:36;-3.80;91.70
21473;DHT22;10898;48.072;11.682;2023-12-04T10:55:39;-3.60;91.50
21473;DHT22;10898;48.072;11.682;2023-12-04T10:57:43;-3.60;90.40
21473;DHT22;10898;48.072;11.682;2023-12-04T10:59:46;-3.60;90.60
21473;DHT22;10898;48.072;11.682;2023-12-04T11:01:48;-3.60;90.70
21473;DHT22;10898;48.072;11.682;2023-12-04T11:03:56;-3.60;90.60
21473;DHT22;10898;48.072;11.682;2023-12-04T11:06:01;-3.50;90.20
21473;DHT22;10898;48.072;11.682;2023-12-04T11:08:11;-3.50;90.20
21473;DHT22;10898;48.072;11.682;2023-12-04T11:10:23;-3.50;90.30
21473;DHT22;10898;48.072;11.682;2023-12-04T11:12:29;-3.50;90.50
21473;DHT22;10898;48.072;11.682;2023-12-04T11:14:46;-3.50;90.10
21473;DHT22;10898;48.072;11.682;2023-12-04T11:16:55;-3.50;89.70
21473;DHT22;10898;48.072;11.682;2023-12-04T11:19:14;-3.60;89.00
21473;DHT22;10898;48.072;11.682;2023-12-04T11:21:20;-3.70;88.90
21473;DHT22;10898;48.072;11.682;2023-12-04T11:23:23;-3.80;89.00
21473;DHT22;10898;48.072;11.682;2023-12-04T11:25:26;-3.80;90.00
21473;DHT22;10898;48.072;11.682;2023-12-04T11:27:28;-3.80;90.40
21473;DHT22;10898;48.072;11.682;2023-12-04T11:29:30;-3.80;90.50
21473;DHT22;10898;48.072;11.682;2023-12-04T11:31:33;-3.70;90.30
21473;DHT22;10898;48.072;11.682;2023-12-04T11:33:36;-3.70;90.00
21473;DHT22;10898;48.072;11.682;2023-12-04T11:35:40;-3.60;90.00
21473;DHT22;10898;48.072;11.682;2023-12-04T11:37:42;-3.60;89.80
21473;DHT22;10898;48.072;11.682;2023-12-04T11:39:49;-3.60;89.80
21473;DHT22;10898;48.072;11.682;2023-12-04T11:41:51;-3.60;89.60
21473;DHT22;10898;48.072;11.682;2023-12-04T11:43:55;-3.60;90.40
21473;DHT22;10898;48.072;11.682;2023-12-04T11:46:10;-3.60;90.60
21473;DHT22;10898;48.072;11.682;2023-12-04T11:48:14;-3.60;90.80
21473;DHT22;10898;48.072;11.682;2023-12-04T11:50:20;-3.60;90.70
21473;DHT22;10898;48.072;11.682;2023-12-04T11:52:34;-3.60;90.50
21473;DHT22;10898;48.072;11.682;2023-12-04T11:59:12;-3.50;91.30
21473;DHT22;10898;48.072;11.682;2023-12-04T12:01:17;-3.40;91.10
21473;DHT22;10898;48.072;11.682;2023-12-04T12:03:21;-3.40;90.80
21473;DHT22;10898;48.072;11.682;2023-12-04T12:05:24;-3.40;91.50
21473;DHT22;10898;48.072;11.682;2023-12-04T12:07:28;-3.40;92.10
21473;DHT22;10898;48.072;11.682;2023-12-04T12:09:31;-3.40;92.70
21473;DHT22;10898;48.072;11.682;2023-12-04T12:11:34;-3.40;92.60
21473;DHT22;10898;48.072;11.682;2023-12-04T12:13:35;-3.20;92.40
21473;DHT22;10898;48.072;11.682;2023-12-04T12:15:37;-3.20;92.40
21473;DHT22;10898;48.072;11.682;2023-12-04T12:17:40;-3.20;91.10
21473;DHT22;10898;48.072;11.682;2023-12-04T12:19:42;-3.30;91.20
21473;DHT22;10898;48.072;11.682;2023-12-04T12:21:44;-3.30;91.40
21473;DHT22;10898;48.072;11.682;2023-12-04T12:23:46;-3.40;91.40
21473;DHT22;10898;48.072;11.682;2023-12-04T12:25:48;-3.30;91.50
21473;DHT22;10898;48.072;11.682;2023-12-04T12:27:52;-3.20;91.60
21473;DHT22;10898;48.072;11.682;2023-12-04T12:29:54;-3.20;90.90
21473;DHT22;10898;48.072;11.682;2023-12-04T12:31:56;-3.20;90.80
21473;DHT22;10898;48.072;11.682;2023-12-04T12:33:58;-3.20;91.00
21473;DHT22;10898;48.072;11.682;2023-12-04T12:36:00;-3.20;91.60
21473;DHT22;10898;48.072;11.682;2023-12-04T12:38:06;-3.20;91.00
21473;DHT22;10898;48.072;11.682;2023-12-04T12:40:09;-3.10;91.20
21473;DHT22;10898;48.072;11.682;2023-12-04T12:42:12;-3.10;91.60
21473;DHT22;10898;48.072;11.682;2023-12-04T12:44:22;-3.10;90.90
21473;DHT22;10898;48.072;11.682;2023-12-04T12:46:23;-3.20;91.40
21473;DHT22;10898;48.072;11.682;2023-12-04T12:48:27;-3.10;91.40